Time;durP1;ratioP1;P1;durP2;ratioP2;P2;SDS_P1;SDS_P2;PMS_P1;PMS_P2;Temp;Humidity;BMP_temperature;BMP_pressure;BME280_temperature;BME280_humidity;BME280_pressure;Samples;Min_cycle;Max_cycle;Signal;HPM_P1;HPM_P2
2022/09/20 00:00:11;;;;;;;325.73;145.13;;;;;;;;;;5015028;28;20230;-56
2022/09/20 00:02:37;;;;;;;304.13;138.17;;;;;;;;;;5015930;28;20648;-56
2022/09/20 00:05:03;;;;;;;308.90;138.17;;;;;;;;;;5010124;28;20206;-56
2022/09/20 00:07:29;;;;;;;340.73;151.10;;;;;;;;;;5009588;28;20215;-56
2022/09/20 00:09:56;;;;;;;296.07;133.90;;;;;;;;;;5017390;28;20577;-56
2022/09/20 00:12:22;;;;;;;277.17;126.83;;;;;;;;;;5009999;28;20663;-56
2022/09/20 00:14:48;;;;;;;354.67;156.93;;;;;;;;;;5014676;28;20631;-56
2022/09/20 00:17:14;;;;;;;348.50;152.33;;;;;;;;;;5007607;28;20247;-57
2022/09/20 00:19:40;;;;;;;361.97;152.37;;;;;;;;;;5017299;28;20669;-57
2022/09/20 00:22:06;;;;;;;340.70;148.97;;;;;;;;;;5010901;28;20235;-56
2022/09/20 00:24:35;;;;;;;291.93;133.53;;;;;;;;;;5019669;28;20335;-56
2022/09/20 00:27:01;;;;;;;404.97;172.27;;;;;;;;;;5012709;28;20574;-56
2022/09/20 00:29:27;;;;;;;338.73;147.40;;;;;;;;;;5006243;28;20207;-56
2022/09/20 00:31:53;;;;;;;367.50;157.63;;;;;;;;;;5008825;28;20192;-56
2022/09/20 00:37:03;;;;;;;330.43;146.07;;;;;;;;;;5015660;28;20604;-56
2022/09/20 00:39:30;;;;;;;354.47;153.57;;;;;;;;;;5013995;28;20203;-56
2022/09/20 00:41:56;;;;;;;317.93;138.30;;;;;;;;;;5018555;28;20190;-56
2022/09/20 00:44:44;;;;;;;330.03;143.00;;;;;;;;;;5009611;28;20207;-56
2022/09/20 00:47:29;;;;;;;275.63;128.93;;;;;;;;;;5016168;28;20534;-56
2022/09/20 00:49:57;;;;;;;323.10;140.27;;;;;;;;;;5008700;28;20483;-56
2022/09/20 00:52:23;;;;;;;370.83;160.50;;;;;;;;;;5011352;28;20195;-54
2022/09/20 00:54:49;;;;;;;270.37;124.93;;;;;;;;;;5014842;28;20207;-54
2022/09/20 00:57:15;;;;;;;347.97;153.90;;;;;;;;;;5007253;28;20187;-54
2022/09/20 00:59:42;;;;;;;361.77;156.60;;;;;;;;;;5003316;28;20208;-54
2022/09/20 01:02:13;;;;;;;347.73;151.67;;;;;;;;;;5008026;28;20743;-54
2022/09/20 01:04:40;;;;;;;295.07;133.43;;;;;;;;;;5027430;28;21973;-53
2022/09/20 01:07:07;;;;;;;295.03;132.53;;;;;;;;;;5013047;28;20269;-54
2022/09/20 01:09:33;;;;;;;338.60;146.97;;;;;;;;;;5019480;28;20184;-54
2022/09/20 01:12:01;;;;;;;331.60;141.10;;;;;;;;;;5023910;28;20222;-54
2022/09/20 01:14:27;;;;;;;292.97;131.67;;;;;;;;;;5017391;28;20243;-56
2022/09/20 01:16:54;;;;;;;311.13;139.03;;;;;;;;;;5018205;28;20873;-56
2022/09/20 01:19:32;;;;;;;298.43;131.57;;;;;;;;;;5027964;28;20659;-55
2022/09/20 01:22:00;;;;;;;279.93;128.07;;;;;;;;;;5026592;28;20230;-56
2022/09/20 01:24:38;;;;;;;258.47;118.47;;;;;;;;;;5020286;28;20235;-55
2022/09/20 01:27:04;;;;;;;353.13;151.97;;;;;;;;;;5023649;28;20211;-56
2022/09/20 01:29:36;;;;;;;297.17;134.40;;;;;;;;;;5025117;28;20215;-56
2022/09/20 01:32:03;;;;;;;354.43;152.03;;;;;;;;;;5018192;28;20240;-56
2022/09/20 01:34:33;;;;;;;307.67;137.83;;;;;;;;;;5018151;28;20702;-56
2022/09/20 01:37:05;;;;;;;327.27;141.73;;;;;;;;;;5022842;28;20693;-56
2022/09/20 01:39:51;;;;;;;246.20;114.97;;;;;;;;;;5019472;28;20217;-56
2022/09/20 01:42:17;;;;;;;397.67;163.77;;;;;;;;;;5014402;28;20191;-56
2022/09/20 01:45:01;;;;;;;373.53;160.50;;;;;;;;;;5015906;28;20199;-56
2022/09/20 01:47:32;;;;;;;272.80;124.17;;;;;;;;;;5016325;28;20585;-56
2022/09/20 01:50:07;;;;;;;319.73;142.00;;;;;;;;;;5010958;28;20188;-56
2022/09/20 01:52:36;;;;;;;272.60;125.20;;;;;;;;;;5022851;28;20404;-56
2022/09/20 01:55:17;;;;;;;275.27;124.67;;;;;;;;;;5025923;28;20211;-56
2022/09/20 01:58:07;;;;;;;361.40;153.80;;;;;;;;;;5014910;28;20195;-56
2022/09/20 02:00:42;;;;;;;347.93;150.97;;;;;;;;;;5019462;28;20182;-56
2022/09/20 02:03:27;;;;;;;292.33;130.17;;;;;;;;;;5017135;28;20635;-56
2022/09/20 02:06:19;;;;;;;303.03;135.03;;;;;;;;;;5019311;28;20204;-56
2022/09/20 02:08:45;;;;;;;320.20;143.40;;;;;;;;;;5023235;28;20214;-56
2022/09/20 02:11:14;;;;;;;285.33;131.00;;;;;;;;;;5016455;28;20429;-56
2022/09/20 02:13:40;;;;;;;349.70;148.60;;;;;;;;;;5026956;28;20559;-56
2022/09/20 02:16:21;;;;;;;298.90;134.90;;;;;;;;;;5016348;28;20513;-56
2022/09/20 02:18:47;;;;;;;291.60;128.20;;;;;;;;;;5031631;28;20200;-56
2022/09/20 02:21:32;;;;;;;331.53;144.93;;;;;;;;;;5009355;28;20194;-56
2022/09/20 02:24:01;;;;;;;313.77;136.50;;;;;;;;;;5021385;28;20230;-56
2022/09/20 02:26:32;;;;;;;357.20;153.57;;;;;;;;;;5022013;28;20599;-56
2022/09/20 02:29:04;;;;;;;303.90;134.37;;;;;;;;;;5024587;28;20195;-56
2022/09/20 02:31:48;;;;;;;318.67;139.47;;;;;;;;;;5013104;28;20194;-56
2022/09/20 02:34:33;;;;;;;317.33;139.43;;;;;;;;;;5016151;28;20207;-56
2022/09/20 02:36:59;;;;;;;302.30;132.37;;;;;;;;;;5022996;28;20188;-56
2022/09/20 02:39:37;;;;;;;254.07;118.50;;;;;;;;;;5016427;28;20258;-56
2022/09/20 02:42:18;;;;;;;311.77;136.87;;;;;;;;;;5023417;28;20652;-56
2022/09/20 02:44:44;;;;;;;303.13;132.73;;;;;;;;;;5021103;28;20293;-56
2022/09/20 02:47:29;;;;;;;347.13;152.63;;;;;;;;;;5013504;28;20187;-56
2022/09/20 02:49:58;;;;;;;334.07;144.33;;;;;;;;;;5022115;28;20184;-56
2022/09/20 02:52:42;;;;;;;277.93;125.77;;;;;;;;;;5017735;28;20253;-56
2022/09/20 02:55:24;;;;;;;259.60;120.50;;;;;;;;;;5023391;28;20679;-56
2022/09/20 02:58:09;;;;;;;377.37;158.53;;;;;;;;;;5011925;28;20613;-56
2022/09/20 03:00:55;;;;;;;416.70;172.63;;;;;;;;;;5013724;28;20189;-56
2022/09/20 03:03:30;;;;;;;359.77;152.37;;;;;;;;;;5002131;28;20669;-56
2022/09/20 03:06:07;;;;;;;346.53;148.80;;;;;;;;;;5012268;28;20200;-56
2022/09/20 03:08:51;;;;;;;324.03;142.20;;;;;;;;;;5018915;28;20569;-56
2022/09/20 03:11:38;;;;;;;353.90;149.13;;;;;;;;;;5018801;28;20506;-55
2022/09/20 03:14:08;;;;;;;305.90;133.43;;;;;;;;;;5019386;28;20266;-55
2022/09/20 03:16:53;;;;;;;322.23;140.43;;;;;;;;;;5020187;28;20188;-56
2022/09/20 03:19:32;;;;;;;385.97;163.20;;;;;;;;;;5010134;28;20584;-56
2022/09/20 03:22:17;;;;;;;385.83;157.77;;;;;;;;;;5016416;28;20192;-56
2022/09/20 03:25:01;;;;;;;296.40;132.83;;;;;;;;;;5019690;28;20201;-56
2022/09/20 03:27:30;;;;;;;348.87;147.80;;;;;;;;;;5020412;28;20809;-56
2022/09/20 03:30:15;;;;;;;292.53;128.20;;;;;;;;;;5024641;28;20245;-56
2022/09/20 03:32:50;;;;;;;354.07;150.23;;;;;;;;;;5011046;28;21048;-56
2022/09/20 03:35:22;;;;;;;440.83;178.93;;;;;;;;;;5010716;28;20564;-56
2022/09/20 03:37:54;;;;;;;336.43;143.47;;;;;;;;;;5025247;28;20251;-56
2022/09/20 03:40:32;;;;;;;356.37;154.20;;;;;;;;;;5024473;28;20374;-56
2022/09/20 03:43:19;;;;;;;365.77;153.97;;;;;;;;;;5014020;28;20179;-56
2022/09/20 03:46:00;;;;;;;390.47;166.53;;;;;;;;;;4998798;28;20954;-56
2022/09/20 03:48:45;;;;;;;351.77;149.43;;;;;;;;;;5020763;28;20187;-56
2022/09/20 03:51:34;;;;;;;281.77;127.53;;;;;;;;;;5017980;28;20851;-55
2022/09/20 03:54:03;;;;;;;346.37;148.00;;;;;;;;;;5019483;28;20191;-56
2022/09/20 03:56:44;;;;;;;360.43;148.03;;;;;;;;;;5018855;28;20191;-56
2022/09/20 03:59:16;;;;;;;314.37;133.73;;;;;;;;;;5014318;28;20627;-56
2022/09/20 04:02:01;;;;;;;376.67;157.40;;;;;;;;;;5014243;28;20180;-56
2022/09/20 04:04:47;;;;;;;308.93;134.80;;;;;;;;;;5021659;28;20203;-55
2022/09/20 04:07:20;;;;;;;266.93;125.57;;;;;;;;;;5013152;28;20629;-55
2022/09/20 04:09:55;;;;;;;335.67;141.53;;;;;;;;;;5014546;28;20671;-56
2022/09/20 04:12:21;;;;;;;330.83;141.83;;;;;;;;;;5015771;28;20183;-56
2022/09/20 04:14:59;;;;;;;358.03;153.50;;;;;;;;;;5007389;28;20262;-56
2022/09/20 04:17:45;;;;;;;348.30;144.97;;;;;;;;;;5013843;28;20271;-56
2022/09/20 04:20:27;;;;;;;330.97;141.83;;;;;;;;;;5020138;28;20587;-56
2022/09/20 04:22:57;;;;;;;367.53;159.33;;;;;;;;;;5014962;28;20264;-56
2022/09/20 04:25:26;;;;;;;313.93;141.00;;;;;;;;;;5028097;28;20208;-56
2022/09/20 04:28:05;;;;;;;271.50;127.13;;;;;;;;;;5011134;28;20617;-56
2022/09/20 04:30:36;;;;;;;306.27;138.40;;;;;;;;;;5016694;28;20533;-56
2022/09/20 04:33:05;;;;;;;297.10;130.33;;;;;;;;;;5011828;28;20184;-56
2022/09/20 04:38:19;;;;;;;234.90;111.80;;;;;;;;;;5023288;28;20242;-56
2022/09/20 04:41:04;;;;;;;280.17;124.80;;;;;;;;;;5025764;28;20180;-56
2022/09/20 04:43:31;;;;;;;281.27;125.90;;;;;;;;;;5021986;28;20188;-56
2022/09/20 04:46:17;;;;;;;229.93;109.30;;;;;;;;;;5020733;28;20219;-55
2022/09/20 04:48:55;;;;;;;269.17;121.53;;;;;;;;;;5028016;28;20200;-56
2022/09/20 04:51:39;;;;;;;264.23;117.20;;;;;;;;;;5028458;28;20191;-56
2022/09/20 04:54:19;;;;;;;328.33;138.23;;;;;;;;;;5032754;28;20218;-56
2022/09/20 04:57:08;;;;;;;348.57;149.83;;;;;;;;;;5022433;28;21513;-57
2022/09/20 04:59:53;;;;;;;281.43;126.83;;;;;;;;;;5015805;28;20218;-57
2022/09/20 05:02:19;;;;;;;285.20;131.97;;;;;;;;;;5025803;28;20182;-58
2022/09/20 05:04:52;;;;;;;331.83;145.13;;;;;;;;;;5012964;28;20208;-57
2022/09/20 05:07:27;;;;;;;289.77;127.43;;;;;;;;;;5015533;28;20537;-57
2022/09/20 05:10:06;;;;;;;305.23;134.87;;;;;;;;;;5022378;28;20320;-57
2022/09/20 05:12:50;;;;;;;335.93;140.70;;;;;;;;;;4987488;28;20647;-57
2022/09/20 05:15:37;;;;;;;348.90;150.83;;;;;;;;;;5014686;28;20291;-56
2022/09/20 05:18:25;;;;;;;278.43;128.30;;;;;;;;;;5015984;28;20187;-56
2022/09/20 05:20:51;;;;;;;317.80;138.47;;;;;;;;;;5009076;28;20456;-56
2022/09/20 05:23:32;;;;;;;233.63;110.60;;;;;;;;;;5017059;28;20668;-56
2022/09/20 05:26:06;;;;;;;341.07;146.30;;;;;;;;;;5008879;28;20226;-57
2022/09/20 05:28:36;;;;;;;364.33;155.43;;;;;;;;;;5004865;28;20191;-56
2022/09/20 05:31:02;;;;;;;274.97;126.57;;;;;;;;;;5018257;28;20176;-57
2022/09/20 05:33:43;;;;;;;309.80;141.87;;;;;;;;;;5023042;28;20198;-56
2022/09/20 05:36:15;;;;;;;249.00;120.23;;;;;;;;;;5016284;28;20188;-57
2022/09/20 05:38:41;;;;;;;300.77;137.93;;;;;;;;;;5018637;28;20565;-56
2022/09/20 05:41:12;;;;;;;328.13;149.20;;;;;;;;;;5023115;28;20184;-56
2022/09/20 05:43:59;;;;;;;273.47;128.70;;;;;;;;;;5026664;28;20652;-56
2022/09/20 05:46:34;;;;;;;235.33;115.30;;;;;;;;;;5021477;28;20180;-56
2022/09/20 05:49:09;;;;;;;289.83;136.30;;;;;;;;;;5013087;28;20187;-56
2022/09/20 05:51:54;;;;;;;293.23;131.87;;;;;;;;;;5021001;28;20496;-56
2022/09/20 05:54:23;;;;;;;289.10;134.53;;;;;;;;;;5023291;28;20553;-57
2022/09/20 05:56:59;;;;;;;307.70;138.03;;;;;;;;;;5015933;28;20246;-56
2022/09/20 05:59:39;;;;;;;225.53;116.53;;;;;;;;;;5025810;28;20203;-57
2022/09/20 06:02:20;;;;;;;240.43;119.57;;;;;;;;;;5022055;28;20219;-56
2022/09/20 06:04:54;;;;;;;476.47;204.17;;;;;;;;;;4993299;28;20208;-56
2022/09/20 06:07:38;;;;;;;318.87;146.20;;;;;;;;;;5005903;28;20183;-55
2022/09/20 06:10:07;;;;;;;291.60;124.70;;;;;;;;;;5012610;28;20196;-55
2022/09/20 06:12:42;;;;;;;291.40;120.97;;;;;;;;;;5019793;28;20212;-55
2022/09/20 06:15:27;;;;;;;246.37;113.47;;;;;;;;;;5024626;28;20282;-55
2022/09/20 06:17:59;;;;;;;272.40;120.07;;;;;;;;;;5010627;28;20183;-57
2022/09/20 06:20:44;;;;;;;283.83;117.57;;;;;;;;;;5018212;28;20643;-57
2022/09/20 06:23:10;;;;;;;247.10;120.67;;;;;;;;;;5018935;28;20180;-57
2022/09/20 06:25:56;;;;;;;364.73;162.27;;;;;;;;;;5026145;28;20215;-56
2022/09/20 06:28:24;;;;;;;334.70;149.63;;;;;;;;;;5017041;28;20231;-56
2022/09/20 06:30:51;;;;;;;264.07;126.77;;;;;;;;;;5022932;28;20334;-57
2022/09/20 06:33:19;;;;;;;246.93;143.37;;;;;;;;;;5019994;28;20183;-57
2022/09/20 06:35:49;;;;;;;331.67;150.67;;;;;;;;;;5018982;28;20629;-56
2022/09/20 06:41:27;;;;;;;236.87;115.87;;;;;;;;;;5023913;28;20187;-57
2022/09/20 06:44:04;;;;;;;301.57;140.70;;;;;;;;;;5017911;28;20219;-56
2022/09/20 06:46:31;;;;;;;268.50;125.33;;;;;;;;;;5017376;28;20172;-55
2022/09/20 06:48:58;;;;;;;286.57;134.63;;;;;;;;;;5028092;28;20226;-55
2022/09/20 06:51:25;;;;;;;371.03;168.80;;;;;;;;;;5005807;28;20183;-56
2022/09/20 06:53:52;;;;;;;230.80;115.30;;;;;;;;;;5023555;28;20207;-56
2022/09/20 06:56:19;;;;;;;282.70;134.33;;;;;;;;;;5028402;28;20302;-55
2022/09/20 06:58:45;;;;;;;321.95;148.55;;;;;;;;;;5023688;28;20246;-56
2022/09/20 07:01:12;;;;;;;318.93;152.63;;;;;;;;;;5018140;28;20311;-56
2022/09/20 07:03:38;;;;;;;303.60;146.10;;;;;;;;;;5007849;28;20230;-56
2022/09/20 07:06:04;;;;;;;245.33;121.10;;;;;;;;;;5028343;28;20233;-56
2022/09/20 07:08:30;;;;;;;286.57;134.20;;;;;;;;;;5016487;28;20191;-56
2022/09/20 07:10:56;;;;;;;379.20;176.60;;;;;;;;;;5007920;28;20250;-56
2022/09/20 07:13:22;;;;;;;318.10;147.97;;;;;;;;;;5012202;28;20183;-56
2022/09/20 07:15:49;;;;;;;433.70;188.70;;;;;;;;;;5009591;28;21363;-56
2022/09/20 07:18:15;;;;;;;338.53;158.73;;;;;;;;;;5010547;28;20298;-56
2022/09/20 07:20:41;;;;;;;318.63;149.40;;;;;;;;;;5016712;28;20252;-56
2022/09/20 07:23:07;;;;;;;358.80;161.57;;;;;;;;;;5007465;28;20974;-56
2022/09/20 07:25:34;;;;;;;296.97;143.10;;;;;;;;;;5011767;28;20204;-56
2022/09/20 07:28:00;;;;;;;285.37;133.03;;;;;;;;;;5027798;28;20196;-56
2022/09/20 07:30:26;;;;;;;301.47;142.33;;;;;;;;;;5014406;28;20199;-57
2022/09/20 07:32:52;;;;;;;279.17;135.43;;;;;;;;;;5026144;28;20195;-54
2022/09/20 07:35:18;;;;;;;221.77;115.90;;;;;;;;;;5021882;28;20196;-54
2022/09/20 07:37:44;;;;;;;224.70;113.77;;;;;;;;;;5020235;28;20608;-55
2022/09/20 07:40:10;;;;;;;246.93;124.00;;;;;;;;;;5035947;28;20222;-54
2022/09/20 07:42:36;;;;;;;283.20;139.37;;;;;;;;;;5024942;28;20390;-55
2022/09/20 07:45:02;;;;;;;230.50;118.57;;;;;;;;;;5028628;28;20211;-54
2022/09/20 07:47:31;;;;;;;250.83;123.27;;;;;;;;;;5035550;28;20758;-55
2022/09/20 07:49:57;;;;;;;240.33;119.17;;;;;;;;;;5033829;28;20207;-55
2022/09/20 07:52:23;;;;;;;245.97;126.50;;;;;;;;;;5033497;28;20184;-55
2022/09/20 07:54:49;;;;;;;465.90;217.40;;;;;;;;;;5023518;28;20211;-55
2022/09/20 07:57:16;;;;;;;326.03;154.77;;;;;;;;;;5028820;28;20184;-55
2022/09/20 07:59:42;;;;;;;255.50;126.63;;;;;;;;;;5013418;28;20223;-55
2022/09/20 08:02:13;;;;;;;292.90;139.23;;;;;;;;;;5008729;28;20544;-55
2022/09/20 08:04:39;;;;;;;261.23;127.87;;;;;;;;;;5007824;28;20751;-55
2022/09/20 08:07:05;;;;;;;265.77;131.17;;;;;;;;;;5013944;28;20183;-55
2022/09/20 08:09:31;;;;;;;277.67;133.40;;;;;;;;;;5019372;28;20218;-55
2022/09/20 08:11:57;;;;;;;293.83;141.80;;;;;;;;;;5020754;28;20192;-55
2022/09/20 08:14:23;;;;;;;358.43;172.53;;;;;;;;;;5022547;28;20618;-55
2022/09/20 08:16:50;;;;;;;317.50;149.83;;;;;;;;;;5010488;28;20314;-55
2022/09/20 08:19:17;;;;;;;318.37;152.07;;;;;;;;;;5021883;28;20451;-55
2022/09/20 08:21:44;;;;;;;327.70;153.27;;;;;;;;;;5022705;28;20251;-55
2022/09/20 08:24:10;;;;;;;280.60;136.77;;;;;;;;;;5025284;28;20292;-55
2022/09/20 08:26:36;;;;;;;289.43;140.43;;;;;;;;;;5034381;28;20228;-55
2022/09/20 08:29:04;;;;;;;336.63;154.37;;;;;;;;;;5018977;28;20215;-55
2022/09/20 08:31:33;;;;;;;312.07;149.60;;;;;;;;;;5017672;28;21127;-55
2022/09/20 08:37:13;;;;;;;342.63;161.47;;;;;;;;;;5030091;28;21014;-54
2022/09/20 08:39:39;;;;;;;254.70;131.33;;;;;;;;;;5021111;28;20257;-54
2022/09/20 08:42:09;;;;;;;324.50;165.93;;;;;;;;;;5020512;28;20222;-55
2022/09/20 08:44:41;;;;;;;289.73;146.47;;;;;;;;;;5012776;28;20212;-54
2022/09/20 08:47:21;;;;;;;301.60;151.00;;;;;;;;;;5015497;28;20239;-55
2022/09/20 08:49:48;;;;;;;299.13;153.27;;;;;;;;;;5011278;28;20198;-54
2022/09/20 08:52:19;;;;;;;269.53;141.13;;;;;;;;;;5029645;28;20188;-55
2022/09/20 08:54:45;;;;;;;380.77;182.97;;;;;;;;;;5009524;28;22451;-54
2022/09/20 08:57:16;;;;;;;382.70;183.67;;;;;;;;;;5007309;28;20653;-55
2022/09/20 08:59:42;;;;;;;370.70;186.40;;;;;;;;;;4995402;28;20204;-54
2022/09/20 09:02:13;;;;;;;369.87;184.53;;;;;;;;;;5009089;28;21325;-55
2022/09/20 09:04:39;;;;;;;286.67;143.67;;;;;;;;;;5007420;28;20228;-55
2022/09/20 09:07:07;;;;;;;279.53;137.67;;;;;;;;;;5016115;28;20235;-55
2022/09/20 09:09:35;;;;;;;264.13;136.83;;;;;;;;;;5028600;28;20191;-54
2022/09/20 09:12:02;;;;;;;276.20;145.73;;;;;;;;;;5027635;28;20263;-54
2022/09/20 09:14:48;;;;;;;285.53;148.43;;;;;;;;;;5023766;28;20681;-54
2022/09/20 09:17:16;;;;;;;295.40;151.30;;;;;;;;;;5020989;28;20534;-55
2022/09/20 09:19:43;;;;;;;278.97;145.83;;;;;;;;;;5025978;28;20191;-55
2022/09/20 09:22:09;;;;;;;285.07;141.37;;;;;;;;;;5021893;28;20188;-55
2022/09/20 09:24:35;;;;;;;259.70;131.73;;;;;;;;;;5024520;28;20207;-54
2022/09/20 09:27:15;;;;;;;304.87;151.33;;;;;;;;;;5025869;28;20677;-55
2022/09/20 09:29:54;;;;;;;302.20;145.80;;;;;;;;;;5024053;28;20207;-55
2022/09/20 09:32:22;;;;;;;259.07;136.17;;;;;;;;;;5034040;28;20249;-55
2022/09/20 09:34:48;;;;;;;273.40;140.73;;;;;;;;;;5030907;28;20204;-54
2022/09/20 09:37:31;;;;;;;291.17;147.53;;;;;;;;;;5026407;28;20335;-55
2022/09/20 09:40:08;;;;;;;299.03;150.27;;;;;;;;;;5026151;28;20648;-54
2022/09/20 09:42:35;;;;;;;272.40;138.87;;;;;;;;;;5027023;28;20274;-54
2022/09/20 09:45:25;;;;;;;346.27;178.03;;;;;;;;;;5018097;28;20200;-55
2022/09/20 09:47:51;;;;;;;374.07;183.57;;;;;;;;;;5008169;28;21078;-55
2022/09/20 09:50:26;;;;;;;279.50;139.23;;;;;;;;;;4997205;28;20185;-54
2022/09/20 09:53:03;;;;;;;347.87;157.80;;;;;;;;;;5005025;28;20196;-55
2022/09/20 09:55:37;;;;;;;436.60;202.27;;;;;;;;;;4996634;28;20208;-55
2022/09/20 09:58:09;;;;;;;358.53;172.87;;;;;;;;;;4996282;28;20423;-55
2022/09/20 10:00:38;;;;;;;365.90;177.77;;;;;;;;;;5004552;28;20683;-54
2022/09/20 10:03:23;;;;;;;404.60;195.00;;;;;;;;;;5000262;28;20188;-54
2022/09/20 10:06:03;;;;;;;376.37;177.93;;;;;;;;;;4989063;28;20766;-54
2022/09/20 10:08:29;;;;;;;365.20;178.67;;;;;;;;;;4997232;28;20263;-54
2022/09/20 10:10:59;;;;;;;439.20;211.53;;;;;;;;;;4998242;28;20189;-54
2022/09/20 10:13:46;;;;;;;410.07;192.77;;;;;;;;;;4992361;28;20649;-54
2022/09/20 10:16:31;;;;;;;357.90;172.50;;;;;;;;;;4988264;28;20208;-54
2022/09/20 10:19:08;;;;;;;382.13;182.03;;;;;;;;;;4993730;28;20220;-55
2022/09/20 10:21:48;;;;;;;376.77;177.70;;;;;;;;;;4995698;28;20262;-55
2022/09/20 10:24:32;;;;;;;371.87;181.70;;;;;;;;;;4996905;28;20213;-55
2022/09/20 10:27:16;;;;;;;436.63;210.63;;;;;;;;;;5000440;28;20683;-55
2022/09/20 10:29:49;;;;;;;412.53;192.40;;;;;;;;;;5004434;28;20185;-55
2022/09/20 10:32:21;;;;;;;408.73;191.87;;;;;;;;;;5003181;28;20216;-55
2022/09/20 10:35:02;;;;;;;385.20;184.07;;;;;;;;;;5007911;28;20207;-56
2022/09/20 10:37:47;;;;;;;398.50;191.00;;;;;;;;;;5004928;28;20195;-54
2022/09/20 10:40:24;;;;;;;396.83;188.43;;;;;;;;;;4999443;28;20185;-54
2022/09/20 10:45:53;;;;;;;536.57;223.87;;;;;;;;;;4990188;28;20234;-50
2022/09/20 10:48:19;;;;;;;412.43;183.07;;;;;;;;;;4991724;28;20212;-51
2022/09/20 10:50:51;;;;;;;362.53;164.93;;;;;;;;;;5002063;28;20275;-54
2022/09/20 10:53:17;;;;;;;382.57;173.93;;;;;;;;;;4994892;28;20184;-54
2022/09/20 10:55:58;;;;;;;410.70;188.43;;;;;;;;;;5007566;28;20743;-55
2022/09/20 10:58:38;;;;;;;343.10;162.53;;;;;;;;;;5002143;28;20646;-55
2022/09/20 11:01:28;;;;;;;401.00;192.00;;;;;;;;;;4997394;28;20803;-55
2022/09/20 11:04:06;;;;;;;357.93;170.27;;;;;;;;;;5004804;28;20192;-55
2022/09/20 11:06:42;;;;;;;362.03;177.40;;;;;;;;;;5000946;28;20212;-55
2022/09/20 11:09:11;;;;;;;360.53;176.40;;;;;;;;;;5017081;28;20629;-55
2022/09/20 11:11:40;;;;;;;360.50;172.20;;;;;;;;;;5012182;28;20176;-55
2022/09/20 11:14:10;;;;;;;421.43;201.37;;;;;;;;;;5004222;28;20205;-55
2022/09/20 11:16:36;;;;;;;362.83;173.10;;;;;;;;;;5007703;28;20456;-55
2022/09/20 11:19:18;;;;;;;359.10;174.27;;;;;;;;;;5016344;28;20180;-55
2022/09/20 11:21:49;;;;;;;351.87;167.53;;;;;;;;;;5012518;28;20236;-55
2022/09/20 11:24:27;;;;;;;346.03;166.80;;;;;;;;;;5013559;28;20563;-55
2022/09/20 11:26:59;;;;;;;338.47;164.07;;;;;;;;;;5009679;28;20220;-55
2022/09/20 11:29:25;;;;;;;355.20;170.43;;;;;;;;;;5014721;28;20193;-55
2022/09/20 11:31:53;;;;;;;369.10;176.77;;;;;;;;;;5010966;28;20637;-55
2022/09/20 11:34:28;;;;;;;365.53;173.83;;;;;;;;;;5011559;28;20303;-55
2022/09/20 11:37:00;;;;;;;334.93;161.37;;;;;;;;;;5019086;28;20244;-55
2022/09/20 11:39:48;;;;;;;344.47;163.47;;;;;;;;;;5015531;28;20267;-54
2022/09/20 11:42:16;;;;;;;371.67;182.73;;;;;;;;;;5011707;28;20698;-55
2022/09/20 11:44:42;;;;;;;352.33;169.70;;;;;;;;;;5019693;28;20215;-55
2022/09/20 11:47:11;;;;;;;348.87;163.90;;;;;;;;;;5004533;28;20725;-55
2022/09/20 11:49:46;;;;;;;370.10;167.30;;;;;;;;;;5014122;28;20636;-55
2022/09/20 11:52:12;;;;;;;378.20;171.77;;;;;;;;;;5014528;28;20208;-55
2022/09/20 11:54:58;;;;;;;353.20;164.07;;;;;;;;;;5013981;28;20231;-55
2022/09/20 11:57:24;;;;;;;350.77;164.63;;;;;;;;;;5013184;28;20211;-54
2022/09/20 12:00:04;;;;;;;375.00;179.40;;;;;;;;;;5011225;28;20192;-55
2022/09/20 12:02:47;;;;;;;387.77;186.37;;;;;;;;;;5012729;28;20177;-55
2022/09/20 12:05:25;;;;;;;400.20;196.27;;;;;;;;;;5009703;28;20249;-55
2022/09/20 12:07:52;;;;;;;350.93;173.93;;;;;;;;;;5014354;28;20219;-55
2022/09/20 12:10:23;;;;;;;365.97;182.80;;;;;;;;;;5011213;28;20268;-55
2022/09/20 12:12:50;;;;;;;467.90;228.07;;;;;;;;;;4992612;28;20529;-55
2022/09/20 12:15:35;;;;;;;452.10;218.23;;;;;;;;;;5001157;28;20200;-55
2022/09/20 12:18:27;;;;;;;384.73;181.07;;;;;;;;;;5001239;28;20674;-55
2022/09/20 12:20:57;;;;;;;415.33;192.97;;;;;;;;;;5002640;28;20283;-54
2022/09/20 12:23:41;;;;;;;548.30;244.90;;;;;;;;;;4985115;28;20185;-54
2022/09/20 12:26:19;;;;;;;495.67;226.77;;;;;;;;;;4998855;28;20216;-54
2022/09/20 12:28:52;;;;;;;429.43;189.57;;;;;;;;;;4999592;28;20215;-54
2022/09/20 12:33:55;;;;;;;450.77;190.77;;;;;;;;;;5000664;28;20317;-54
2022/09/20 12:36:21;;;;;;;387.67;167.53;;;;;;;;;;5001471;28;22623;-54
2022/09/20 12:38:49;;;;;;;359.60;157.37;;;;;;;;;;5007154;28;20219;-54
2022/09/20 12:41:17;;;;;;;400.10;177.07;;;;;;;;;;5007275;28;20200;-54
2022/09/20 12:43:48;;;;;;;392.57;172.17;;;;;;;;;;4996616;28;20219;-54
2022/09/20 12:46:23;;;;;;;372.53;166.53;;;;;;;;;;5001389;28;20212;-54
2022/09/20 12:48:49;;;;;;;406.73;177.97;;;;;;;;;;5004237;28;20640;-54
2022/09/20 12:54:08;;;;;;;379.00;167.70;;;;;;;;;;4991284;28;20223;-54
2022/09/20 12:56:35;;;;;;;361.20;158.43;;;;;;;;;;4992937;28;20193;-54
2022/09/20 12:59:04;;;;;;;378.40;169.60;;;;;;;;;;5003289;28;20232;-54
2022/09/20 13:01:32;;;;;;;412.90;179.50;;;;;;;;;;4991516;28;20274;-54
2022/09/20 13:04:33;;;;;;;412.00;180.33;;;;;;;;;;4996007;28;20181;-54
2022/09/20 13:07:18;;;;;;;391.90;171.13;;;;;;;;;;5003804;28;20212;-54
2022/09/20 13:09:43;;;;;;;453.67;200.77;;;;;;;;;;4999206;28;20177;-54
2022/09/20 13:12:09;;;;;;;436.07;195.30;;;;;;;;;;4999000;28;20185;-54
2022/09/20 13:14:38;;;;;;;383.30;172.40;;;;;;;;;;4998573;28;20255;-54
2022/09/20 13:17:14;;;;;;;429.90;184.87;;;;;;;;;;4985770;28;20239;-54
2022/09/20 13:19:45;;;;;;;397.20;168.93;;;;;;;;;;5006887;28;20935;-54
2022/09/20 13:22:25;;;;;;;451.77;200.77;;;;;;;;;;5004189;28;20184;-52
2022/09/20 13:24:54;;;;;;;426.53;193.07;;;;;;;;;;5001933;28;20302;-52
2022/09/20 13:27:26;;;;;;;385.50;176.87;;;;;;;;;;4999665;28;20583;-52
2022/09/20 13:29:53;;;;;;;357.93;167.30;;;;;;;;;;5010855;28;20547;-53
2022/09/20 13:34:44;;;;;;;387.53;174.10;;;;;;;;;;5028829;28;20703;-55
2022/09/20 13:37:20;;;;;;;411.67;186.37;;;;;;;;;;5009431;28;20204;-55
2022/09/20 13:39:46;;;;;;;405.17;189.47;;;;;;;;;;5002191;28;20192;-54
2022/09/20 13:42:18;;;;;;;440.80;219.30;;;;;;;;;;4999910;28;20238;-55
2022/09/20 13:44:44;;;;;;;422.15;207.40;;;;;;;;;;5001670;28;20200;-55
2022/09/20 13:47:23;;;;;;;467.02;230.65;;;;;;;;;;4999612;28;20748;-55
2022/09/20 13:49:49;;;;;;;471.95;238.38;;;;;;;;;;4999342;28;20695;-55
2022/09/20 13:52:21;;;;;;;396.40;212.15;;;;;;;;;;5001431;28;20375;-55
2022/09/20 13:54:47;;;;;;;446.45;246.15;;;;;;;;;;5008724;28;20207;-55
2022/09/20 13:57:17;;;;;;;413.05;235.65;;;;;;;;;;4996023;28;20188;-55
2022/09/20 13:59:45;;;;;;;399.77;233.15;;;;;;;;;;5003709;28;20189;-55
2022/09/20 14:02:19;;;;;;;379.95;226.75;;;;;;;;;;5012849;28;20215;-55
2022/09/20 14:04:46;;;;;;;458.02;260.88;;;;;;;;;;4995441;28;20216;-55
2022/09/20 14:07:14;;;;;;;407.20;242.82;;;;;;;;;;5002041;28;20194;-55
2022/09/20 14:09:40;;;;;;;419.85;242.27;;;;;;;;;;5002551;28;20180;-55
2022/09/20 14:12:07;;;;;;;456.77;260.73;;;;;;;;;;4994610;28;20235;-55
2022/09/20 14:14:33;;;;;;;385.35;225.50;;;;;;;;;;5004765;28;20209;-55
2022/09/20 14:17:00;;;;;;;369.98;216.98;;;;;;;;;;5011313;28;20187;-55
2022/09/20 14:19:31;;;;;;;395.63;233.25;;;;;;;;;;5007591;28;20185;-55
2022/09/20 14:21:58;;;;;;;427.50;255.73;;;;;;;;;;4995798;28;20239;-55
2022/09/20 14:24:30;;;;;;;360.02;215.25;;;;;;;;;;5003819;28;20557;-55
2022/09/20 14:27:16;;;;;;;376.55;231.35;;;;;;;;;;5003608;28;20180;-55
2022/09/20 14:29:46;;;;;;;371.55;226.75;;;;;;;;;;5017162;28;20610;-55
2022/09/20 14:32:23;;;;;;;346.80;220.13;;;;;;;;;;5008655;28;20185;-55
2022/09/20 14:34:55;;;;;;;384.38;235.00;;;;;;;;;;5004789;28;20685;-55
2022/09/20 14:37:26;;;;;;;430.60;258.52;;;;;;;;;;5003886;28;20648;-55
2022/09/20 14:39:54;;;;;;;464.25;270.50;;;;;;;;;;5005423;28;21004;-55
2022/09/20 14:42:28;;;;;;;420.23;252.55;;;;;;;;;;5003314;28;20188;-55
2022/09/20 14:44:54;;;;;;;415.23;240.50;;;;;;;;;;4998799;28;20242;-56